Ankie — PHKA — position and weather

sailwx.info

Track history (hours):
 
Tides and Currents Weather Stations Pressure Air Temp Water Temp Dewpoint Dewpoint Depression Visibility Wind Speed Wind Dir Waves Ship Positions

Ankie

Last reported at 2017-Nov-17 18:59 UTC. Time now 2017-Nov-17 23:11 UTC.
Position N 56°08' E 016°54'.

Length 89 m; draft 3.9 m.

Type: Cargo ship. MMSI: 244554000.

Date/timePositionNaut miles runAvg speedWind from/ knotsBaromVisibWave heightAir tempDewpointWater temp
2017-Nov-17 18:59N 56°08' E 016°54'511.4
2017-Nov-17 18:31N 56°05' E 016°47'611.4
2017-Nov-17 18:01N 56°01' E 016°38'611.4
2017-Nov-17 17:30N 55°59' E 016°29'611.3
2017-Nov-17 17:00N 55°56' E 016°21'611.3
2017-Nov-17 16:31N 55°53' E 016°12'611.3
2017-Nov-17 16:00N 55°50' E 016°03'611.3
2017-Nov-17 15:31N 55°47' E 015°55'611.2
2017-Nov-17 15:00N 55°44' E 015°46'611.3
2017-Nov-17 14:31N 55°41' E 015°38'611.1
2017-Nov-17 14:01N 55°39' E 015°29'611.2
2017-Nov-17 13:30N 55°36' E 015°20'611.2
2017-Nov-17 13:00N 55°33' E 015°12'611.1
2017-Nov-17 12:30N 55°30' E 015°03'611.1
2017-Nov-17 12:00N 55°28' E 014°54'611.1
2017-Nov-17 11:29N 55°25' E 014°46'511.1
2017-Nov-17 11:00N 55°21' E 014°38'611.4
2017-Nov-17 10:30N 55°17' E 014°32'611.1
2017-Nov-17 10:00N 55°13' E 014°26'510.8
2017-Nov-17 09:31N 55°09' E 014°20'510.8
2017-Nov-17 09:00N 55°04' E 014°14'510.8
2017-Nov-17 08:30N 55°00' E 014°07'4610.7
2017-Nov-17 04:15N 54°43' E 012°54'311.0
2017-Nov-17 03:59N 54°41' E 012°50'811.1
2017-Nov-17 03:18N 54°38' E 012°38'310.7
2017-Nov-17 03:00N 54°36' E 012°33'610.9
2017-Nov-17 02:29N 54°33' E 012°25'510.6
2017-Nov-17 02:01N 54°31' E 012°17'13 9.5
2017-Nov-17 00:41N 54°25' E 011°58'211.1
2017-Nov-17 00:29N 54°25' E 011°55'511.0
2017-Nov-17 00:00N 54°25' E 011°45'511.1
2017-Nov-16 23:31N 54°28' E 011°37'611.0
2017-Nov-16 23:00N 54°30' E 011°28'611.2
2017-Nov-16 22:31N 54°32' E 011°20'510.9
2017-Nov-16 22:01N 54°34' E 011°11'510.6
2017-Nov-16 21:31N 54°34' E 011°02'611.0
2017-Nov-16 21:01N 54°34' E 010°52'611.1
2017-Nov-16 20:30N 54°33' E 010°43'611.1
2017-Nov-16 20:00N 54°32' E 010°33'23 7.1
2017-Nov-16 16:47N 54°21' E 009°59'2 4.2
2017-Nov-16 16:24N 54°20' E 009°56'2 5.6
2017-Nov-16 16:00N 54°21' E 009°53'2 3.4
2017-Nov-16 15:30N 54°22' E 009°50'4 7.7
2017-Nov-16 15:00N 54°20' E 009°44'4 7.8
2017-Nov-16 14:30N 54°17' E 009°39'4 8.2
2017-Nov-16 14:00N 54°14' E 009°36'4 8.5
2017-Nov-16 13:30N 54°11' E 009°30'4 8.6
2017-Nov-16 13:00N 54°10' E 009°24'3 5.8
2017-Nov-16 12:31N 54°08' E 009°20'4 8.1
2017-Nov-16 12:00N 54°04' E 009°19'4 8.5
2017-Nov-16 11:30N 53°59' E 009°17'4 8.5
2017-Nov-16 11:00N 53°56' E 009°13'3 6.8
2017-Nov-16 10:30N 53°54' E 009°09'0 0.0
2017-Nov-16 10:00N 53°54' E 009°09'1 2.4
2017-Nov-16 09:30N 53°53' E 009°07'510.2
2017-Nov-16 09:00N 53°51' E 008°59'713.8
2017-Nov-16 08:30N 53°50' E 008°47'713.1
2017-Nov-16 08:00N 53°55' E 008°40'713.2
2017-Nov-16 07:30N 53°58' E 008°30'713.7
2017-Nov-16 07:00N 53°59' E 008°18'612.8
2017-Nov-16 06:30N 53°59' E 008°08'612.5
2017-Nov-16 06:00N 53°57' E 007°57'612.2
2017-Nov-16 05:30N 53°56' E 007°47'12510.3
2017-Nov-15 17:24N 53°09' E 004°32'411.1
2017-Nov-15 17:00N 53°05' E 004°31'611.9
2017-Nov-15 16:30N 52°59' E 004°31'612.2
2017-Nov-15 16:00N 52°53' E 004°31'612.4
2017-Nov-15 15:30N 52°47' E 004°31'612.2
2017-Nov-15 15:00N 52°41' E 004°31'612.3
2017-Nov-15 14:30N 52°35' E 004°32'612.0
2017-Nov-15 14:00N 52°29' E 004°32'3 5.2
2017-Nov-15 13:31N 52°28' E 004°36'1 1.8
2017-Nov-15 13:00N 52°28' E 004°37'3 5.7
2017-Nov-15 12:30N 52°27' E 004°42'5 9.6
2017-Nov-15 12:01N 52°25' E 004°49'2 3.9
2017-Nov-15 11:30N 52°24' E 004°52'0 0.0
2017-Nov-15 11:00N 52°24' E 004°52'0 0.0
2017-Nov-15 10:30N 52°24' E 004°52'0 0.0
2017-Nov-15 10:00N 52°24' E 004°52'0 0.0
2017-Nov-15 09:30N 52°24' E 004°52'0 0.0
2017-Nov-15 09:00N 52°24' E 004°52'0 0.0
2017-Nov-15 08:30N 52°24' E 004°52'0 0.0
2017-Nov-15 08:00N 52°24' E 004°52'0 0.0
2017-Nov-15 07:30N 52°24' E 004°52'0 0.0
2017-Nov-15 07:00N 52°24' E 004°52'0 0.0
2017-Nov-15 06:30N 52°24' E 004°52'0 0.0
2017-Nov-15 06:00N 52°24' E 004°52'0 0.0
2017-Nov-15 05:30N 52°24' E 004°52'0 0.0
2017-Nov-15 05:00N 52°24' E 004°52'0 0.0
2017-Nov-15 04:30N 52°24' E 004°52'0 0.0
2017-Nov-15 04:00N 52°24' E 004°52'0 0.0
2017-Nov-15 03:30N 52°24' E 004°52'0 0.0
2017-Nov-15 03:00N 52°24' E 004°52'0 0.0
2017-Nov-15 02:30N 52°24' E 004°52'0 0.0
2017-Nov-15 02:00N 52°24' E 004°52'0 0.0
2017-Nov-15 01:30N 52°24' E 004°52'0 0.0
2017-Nov-15 01:00N 52°24' E 004°52'0 0.0
2017-Nov-15 00:30N 52°24' E 004°52'0 0.0
2017-Nov-15 00:00N 52°24' E 004°52'0 0.0
2017-Nov-14 23:30N 52°24' E 004°52'0 0.0
2017-Nov-14 23:00N 52°24' E 004°52'0 0.0
2017-Nov-14 22:30N 52°24' E 004°52'1 2.9
2017-Nov-14 22:00N 52°25' E 004°50'0 0.0
2017-Nov-14 21:31N 52°25' E 004°50'0 0.0
2017-Nov-14 21:00N 52°25' E 004°50'0 0.0
2017-Nov-14 20:31N 52°25' E 004°50'0 0.0
2017-Nov-14 20:01N 52°25' E 004°50'0 0.0
2017-Nov-14 19:31N 52°25' E 004°50'0 0.0
2017-Nov-14 19:01N 52°25' E 004°50'0 0.1
2017-Nov-14 18:31N 52°25' E 004°50'0 0.1
2017-Nov-14 18:01N 52°25' E 004°50'0 0.0
2017-Nov-14 17:30N 52°25' E 004°50'0 0.0
2017-Nov-14 17:01N 52°25' E 004°50'0 0.0
2017-Nov-14 16:30N 52°25' E 004°50'0 0.0
2017-Nov-14 16:01N 52°25' E 004°50'0 0.0
2017-Nov-14 15:31N 52°25' E 004°50'0 0.0
2017-Nov-14 15:00N 52°25' E 004°50'0 0.0
2017-Nov-14 14:31N 52°25' E 004°50'0 0.0
2017-Nov-14 13:58N 52°25' E 004°50'0 0.0
2017-Nov-14 13:31N 52°25' E 004°50'0 0.0
2017-Nov-14 13:01N 52°25' E 004°50'0 0.0
2017-Nov-14 12:30N 52°25' E 004°50'0 0.0
2017-Nov-14 12:00N 52°25' E 004°50'0 0.0
2017-Nov-14 11:28N 52°25' E 004°50'0 0.0
2017-Nov-14 11:01N 52°25' E 004°50'0 0.0
2017-Nov-14 10:30N 52°25' E 004°50'0 0.0
2017-Nov-14 10:00N 52°25' E 004°50'0 0.0
2017-Nov-14 09:31N 52°25' E 004°50'0 0.0
2017-Nov-14 09:00N 52°25' E 004°50'0 0.0
2017-Nov-14 08:30N 52°25' E 004°50'0 0.0
2017-Nov-14 08:00N 52°25' E 004°50'0 0.0
2017-Nov-14 07:30N 52°25' E 004°50'0 0.0
2017-Nov-14 07:00N 52°25' E 004°50'0 0.0
2017-Nov-14 06:30N 52°25' E 004°50'0 0.0
2017-Nov-14 06:00N 52°25' E 004°50'0 0.0
2017-Nov-14 05:30N 52°25' E 004°50'0 0.5
2017-Nov-14 05:00N 52°25' E 004°50'1 2.1
2017-Nov-14 04:30N 52°25' E 004°49'4 8.8
2017-Nov-14 04:00N 52°27' E 004°42'4 7.3
2017-Nov-14 03:30N 52°28' E 004°36'1 1.6
2017-Nov-14 03:01N 52°28' E 004°35'4 8.3
2017-Nov-14 02:30N 52°29' E 004°29'5 9.9
2017-Nov-14 02:00N 52°34' E 004°29'5 9.7
2017-Nov-14 01:30N 52°39' E 004°30'5 9.5
2017-Nov-14 01:00N 52°44' E 004°30'5 9.1
2017-Nov-14 00:30N 52°48' E 004°30'4 8.9
2017-Nov-14 00:00N 52°53' E 004°31'5 9.1
2017-Nov-13 23:30N 52°57' E 004°32'5 9.7
2017-Nov-13 23:00N 53°02' E 004°33'510.3
2017-Nov-13 22:30N 53°07' E 004°33'5 9.4
2017-Nov-13 21:58N 53°11' E 004°28'176 8.8
2017-Nov-13 02:00N 53°57' E 009°14'4 8.8
2017-Nov-13 01:30N 54°01' E 009°18'2 5.0
2017-Nov-13 01:00N 54°03' E 009°18'4 8.5
2017-Nov-13 00:30N 54°08' E 009°20'4 8.2
2017-Nov-13 00:00N 54°10' E 009°25'4 8.8
2017-Nov-12 23:30N 54°12' E 009°32'4 8.7
2017-Nov-12 23:00N 54°15' E 009°37'4 7.3
2017-Nov-12 22:30N 54°18' E 009°41'4 7.9
2017-Nov-12 22:00N 54°21' E 009°45'8 7.7
2017-Nov-12 20:59N 54°21' E 009°59'17 4.8
2017-Nov-12 17:24N 54°29' E 010°25'410.6
2017-Nov-12 17:00N 54°30' E 010°32'510.7
2017-Nov-12 16:30N 54°31' E 010°41'510.9
2017-Nov-12 16:00N 54°33' E 010°50'510.7
2017-Nov-12 15:30N 54°34' E 010°59'510.3
2017-Nov-12 15:00N 54°34' E 011°08'510.6
2017-Nov-12 14:30N 54°32' E 011°16'510.1
2017-Nov-12 14:00N 54°31' E 011°25'5 9.8
2017-Nov-12 13:30N 54°30' E 011°33'510.3
2017-Nov-12 12:59N 54°29' E 011°42'510.1
2017-Nov-12 12:28N 54°28' E 011°51'510.2
2017-Nov-12 12:00N 54°27' E 011°59'80 9.6
2017-Nov-12 03:40N 55°06' E 013°60'2 9.6
2017-Nov-12 03:27N 55°07' E 014°03'5 8.7
2017-Nov-12 02:55N 55°10' E 014°10'4 9.0
2017-Nov-12 02:30N 55°12' E 014°15'5 9.4
2017-Nov-12 02:00N 55°15' E 014°20'5 9.9
2017-Nov-12 01:30N 55°19' E 014°26'510.3
2017-Nov-12 01:00N 55°23' E 014°32'610.1
2017-Nov-12 00:26N 55°27' E 014°40'410.2
2017-Nov-12 00:00N 55°29' E 014°46'510.2
2017-Nov-11 23:30N 55°32' E 014°54'510.2
2017-Nov-11 23:00N 55°34' E 015°02'510.0
2017-Nov-11 22:30N 55°37' E 015°10'5 9.7
2017-Nov-11 22:00N 55°39' E 015°17'5 9.5
2017-Nov-11 21:30N 55°41' E 015°24'5 9.2
2017-Nov-11 21:00N 55°44' E 015°31'5 9.0
2017-Nov-11 20:30N 55°46' E 015°38'4 9.0
2017-Nov-11 20:00N 55°48' E 015°45'4 8.6
2017-Nov-11 19:30N 55°51' E 015°51'4 8.6
2017-Nov-11 19:00N 55°53' E 015°58'4 8.2
2017-Nov-11 18:30N 55°55' E 016°04'4 7.9
2017-Nov-11 18:00N 55°57' E 016°10'4 7.8
2017-Nov-11 17:30N 55°59' E 016°16'4 8.1
2017-Nov-11 17:00N 56°01' E 016°22'4 8.1
2017-Nov-11 16:30N 56°04' E 016°28'4 8.0
2017-Nov-11 16:00N 56°06' E 016°34'4 8.2
2017-Nov-11 15:30N 56°08' E 016°40'4 8.3
2017-Nov-11 15:00N 56°12' E 016°44'5 9.8
2017-Nov-11 14:30N 56°16' E 016°46'510.2
2017-Nov-11 13:58N 56°22' E 016°48'19910.0
2017-Nov-10 18:07N 59°21' E 019°33'110.4
2017-Nov-10 18:00N 59°22' E 019°34'1410.1
2017-Nov-10 16:38N 59°35' E 019°44'210.6
2017-Nov-10 16:28N 59°37' E 019°44'510.0
2017-Nov-10 16:00N 59°41' E 019°41'510.7
2017-Nov-10 15:30N 59°45' E 019°35'510.6
2017-Nov-10 15:00N 59°50' E 019°29'610.8
2017-Nov-10 14:28N 59°55' E 019°23'510.8
2017-Nov-10 13:59N 59°59' E 019°17'511.1
2017-Nov-10 13:30N 60°03' E 019°11'611.0
2017-Nov-10 13:00N 60°08' E 019°05'510.7
2017-Nov-10 12:30N 60°13' E 018°60'510.5
2017-Nov-10 12:00N 60°18' E 019°00'510.8
2017-Nov-10 11:30N 60°23' E 019°00'  
Track history (hours):
 
Tides and Currents Weather Stations Pressure Air Temp Water Temp Dewpoint Dewpoint Depression Visibility Wind Speed Wind Dir Waves Ship Positions

Ankie

Last reported at 2017-Nov-17 18:59 UTC. Time now 2017-Nov-17 23:11 UTC.
Position N 56°08' E 016°54'.

Length 89 m; draft 3.9 m.

Type: Cargo ship. MMSI: 244554000.

Date/timePositionNaut miles runAvg speedWind from/ knotsBaromVisibWave heightAir tempDewpointWater temp
2017-Nov-17 18:59N 56°08' E 016°54'511.4
2017-Nov-17 18:31N 56°05' E 016°47'611.4
2017-Nov-17 18:01N 56°01' E 016°38'611.4
2017-Nov-17 17:30N 55°59' E 016°29'611.3
2017-Nov-17 17:00N 55°56' E 016°21'611.3
2017-Nov-17 16:31N 55°53' E 016°12'611.3
2017-Nov-17 16:00N 55°50' E 016°03'611.3
2017-Nov-17 15:31N 55°47' E 015°55'611.2
2017-Nov-17 15:00N 55°44' E 015°46'611.3
2017-Nov-17 14:31N 55°41' E 015°38'611.1
2017-Nov-17 14:01N 55°39' E 015°29'611.2
2017-Nov-17 13:30N 55°36' E 015°20'611.2
2017-Nov-17 13:00N 55°33' E 015°12'611.1
2017-Nov-17 12:30N 55°30' E 015°03'611.1
2017-Nov-17 12:00N 55°28' E 014°54'611.1
2017-Nov-17 11:29N 55°25' E 014°46'511.1
2017-Nov-17 11:00N 55°21' E 014°38'611.4
2017-Nov-17 10:30N 55°17' E 014°32'611.1
2017-Nov-17 10:00N 55°13' E 014°26'510.8
2017-Nov-17 09:31N 55°09' E 014°20'510.8
2017-Nov-17 09:00N 55°04' E 014°14'510.8
2017-Nov-17 08:30N 55°00' E 014°07'4610.7
2017-Nov-17 04:15N 54°43' E 012°54'311.0
2017-Nov-17 03:59N 54°41' E 012°50'811.1
2017-Nov-17 03:18N 54°38' E 012°38'310.7
2017-Nov-17 03:00N 54°36' E 012°33'610.9
2017-Nov-17 02:29N 54°33' E 012°25'510.6
2017-Nov-17 02:01N 54°31' E 012°17'13 9.5
2017-Nov-17 00:41N 54°25' E 011°58'211.1
2017-Nov-17 00:29N 54°25' E 011°55'511.0
2017-Nov-17 00:00N 54°25' E 011°45'511.1
2017-Nov-16 23:31N 54°28' E 011°37'611.0
2017-Nov-16 23:00N 54°30' E 011°28'611.2
2017-Nov-16 22:31N 54°32' E 011°20'510.9
2017-Nov-16 22:01N 54°34' E 011°11'510.6
2017-Nov-16 21:31N 54°34' E 011°02'611.0
2017-Nov-16 21:01N 54°34' E 010°52'611.1
2017-Nov-16 20:30N 54°33' E 010°43'611.1
2017-Nov-16 20:00N 54°32' E 010°33'23 7.1
2017-Nov-16 16:47N 54°21' E 009°59'2 4.2
2017-Nov-16 16:24N 54°20' E 009°56'2 5.6
2017-Nov-16 16:00N 54°21' E 009°53'2 3.4
2017-Nov-16 15:30N 54°22' E 009°50'4 7.7
2017-Nov-16 15:00N 54°20' E 009°44'4 7.8
2017-Nov-16 14:30N 54°17' E 009°39'4 8.2
2017-Nov-16 14:00N 54°14' E 009°36'4 8.5
2017-Nov-16 13:30N 54°11' E 009°30'4 8.6
2017-Nov-16 13:00N 54°10' E 009°24'3 5.8
2017-Nov-16 12:31N 54°08' E 009°20'4 8.1
2017-Nov-16 12:00N 54°04' E 009°19'4 8.5
2017-Nov-16 11:30N 53°59' E 009°17'4 8.5
2017-Nov-16 11:00N 53°56' E 009°13'3 6.8
2017-Nov-16 10:30N 53°54' E 009°09'0 0.0
2017-Nov-16 10:00N 53°54' E 009°09'1 2.4
2017-Nov-16 09:30N 53°53' E 009°07'510.2
2017-Nov-16 09:00N 53°51' E 008°59'713.8
2017-Nov-16 08:30N 53°50' E 008°47'713.1
2017-Nov-16 08:00N 53°55' E 008°40'713.2
2017-Nov-16 07:30N 53°58' E 008°30'713.7
2017-Nov-16 07:00N 53°59' E 008°18'612.8
2017-Nov-16 06:30N 53°59' E 008°08'612.5
2017-Nov-16 06:00N 53°57' E 007°57'612.2
2017-Nov-16 05:30N 53°56' E 007°47'12510.3
2017-Nov-15 17:24N 53°09' E 004°32'411.1
2017-Nov-15 17:00N 53°05' E 004°31'611.9
2017-Nov-15 16:30N 52°59' E 004°31'612.2
2017-Nov-15 16:00N 52°53' E 004°31'612.4
2017-Nov-15 15:30N 52°47' E 004°31'612.2
2017-Nov-15 15:00N 52°41' E 004°31'612.3
2017-Nov-15 14:30N 52°35' E 004°32'612.0
2017-Nov-15 14:00N 52°29' E 004°32'3 5.2
2017-Nov-15 13:31N 52°28' E 004°36'1 1.8
2017-Nov-15 13:00N 52°28' E 004°37'3 5.7
2017-Nov-15 12:30N 52°27' E 004°42'5 9.6
2017-Nov-15 12:01N 52°25' E 004°49'2 3.9
2017-Nov-15 11:30N 52°24' E 004°52'0 0.0
2017-Nov-15 11:00N 52°24' E 004°52'0 0.0
2017-Nov-15 10:30N 52°24' E 004°52'0 0.0
2017-Nov-15 10:00N 52°24' E 004°52'0 0.0
2017-Nov-15 09:30N 52°24' E 004°52'0 0.0
2017-Nov-15 09:00N 52°24' E 004°52'0 0.0
2017-Nov-15 08:30N 52°24' E 004°52'0 0.0
2017-Nov-15 08:00N 52°24' E 004°52'0 0.0
2017-Nov-15 07:30N 52°24' E 004°52'0 0.0
2017-Nov-15 07:00N 52°24' E 004°52'0 0.0
2017-Nov-15 06:30N 52°24' E 004°52'0 0.0
2017-Nov-15 06:00N 52°24' E 004°52'0 0.0
2017-Nov-15 05:30N 52°24' E 004°52'0 0.0
2017-Nov-15 05:00N 52°24' E 004°52'0 0.0
2017-Nov-15 04:30N 52°24' E 004°52'0 0.0
2017-Nov-15 04:00N 52°24' E 004°52'0 0.0
2017-Nov-15 03:30N 52°24' E 004°52'0 0.0
2017-Nov-15 03:00N 52°24' E 004°52'0 0.0
2017-Nov-15 02:30N 52°24' E 004°52'0 0.0
2017-Nov-15 02:00N 52°24' E 004°52'0 0.0
2017-Nov-15 01:30N 52°24' E 004°52'0 0.0
2017-Nov-15 01:00N 52°24' E 004°52'0 0.0
2017-Nov-15 00:30N 52°24' E 004°52'0 0.0
2017-Nov-15 00:00N 52°24' E 004°52'0 0.0
2017-Nov-14 23:30N 52°24' E 004°52'0 0.0
2017-Nov-14 23:00N 52°24' E 004°52'0 0.0
2017-Nov-14 22:30N 52°24' E 004°52'1 2.9
2017-Nov-14 22:00N 52°25' E 004°50'0 0.0
2017-Nov-14 21:31N 52°25' E 004°50'0 0.0
2017-Nov-14 21:00N 52°25' E 004°50'0 0.0
2017-Nov-14 20:31N 52°25' E 004°50'0 0.0
2017-Nov-14 20:01N 52°25' E 004°50'0 0.0
2017-Nov-14 19:31N 52°25' E 004°50'0 0.0
2017-Nov-14 19:01N 52°25' E 004°50'0 0.1
2017-Nov-14 18:31N 52°25' E 004°50'0 0.1
2017-Nov-14 18:01N 52°25' E 004°50'0 0.0
2017-Nov-14 17:30N 52°25' E 004°50'0 0.0
2017-Nov-14 17:01N 52°25' E 004°50'0 0.0
2017-Nov-14 16:30N 52°25' E 004°50'0 0.0
2017-Nov-14 16:01N 52°25' E 004°50'0 0.0
2017-Nov-14 15:31N 52°25' E 004°50'0 0.0
2017-Nov-14 15:00N 52°25' E 004°50'0 0.0
2017-Nov-14 14:31N 52°25' E 004°50'0 0.0
2017-Nov-14 13:58N 52°25' E 004°50'0 0.0
2017-Nov-14 13:31N 52°25' E 004°50'0 0.0
2017-Nov-14 13:01N 52°25' E 004°50'0 0.0
2017-Nov-14 12:30N 52°25' E 004°50'0 0.0
2017-Nov-14 12:00N 52°25' E 004°50'0 0.0
2017-Nov-14 11:28N 52°25' E 004°50'0 0.0
2017-Nov-14 11:01N 52°25' E 004°50'0 0.0
2017-Nov-14 10:30N 52°25' E 004°50'0 0.0
2017-Nov-14 10:00N 52°25' E 004°50'0 0.0
2017-Nov-14 09:31N 52°25' E 004°50'0 0.0
2017-Nov-14 09:00N 52°25' E 004°50'0 0.0
2017-Nov-14 08:30N 52°25' E 004°50'0 0.0
2017-Nov-14 08:00N 52°25' E 004°50'0 0.0
2017-Nov-14 07:30N 52°25' E 004°50'0 0.0
2017-Nov-14 07:00N 52°25' E 004°50'0 0.0
2017-Nov-14 06:30N 52°25' E 004°50'0 0.0
2017-Nov-14 06:00N 52°25' E 004°50'0 0.0
2017-Nov-14 05:30N 52°25' E 004°50'0 0.5
2017-Nov-14 05:00N 52°25' E 004°50'1 2.1
2017-Nov-14 04:30N 52°25' E 004°49'4 8.8
2017-Nov-14 04:00N 52°27' E 004°42'4 7.3
2017-Nov-14 03:30N 52°28' E 004°36'1 1.6
2017-Nov-14 03:01N 52°28' E 004°35'4 8.3
2017-Nov-14 02:30N 52°29' E 004°29'5 9.9
2017-Nov-14 02:00N 52°34' E 004°29'5 9.7
2017-Nov-14 01:30N 52°39' E 004°30'5 9.5
2017-Nov-14 01:00N 52°44' E 004°30'5 9.1
2017-Nov-14 00:30N 52°48' E 004°30'4 8.9
2017-Nov-14 00:00N 52°53' E 004°31'5 9.1
2017-Nov-13 23:30N 52°57' E 004°32'5 9.7
2017-Nov-13 23:00N 53°02' E 004°33'510.3
2017-Nov-13 22:30N 53°07' E 004°33'5 9.4
2017-Nov-13 21:58N 53°11' E 004°28'176 8.8
2017-Nov-13 02:00N 53°57' E 009°14'4 8.8
2017-Nov-13 01:30N 54°01' E 009°18'2 5.0
2017-Nov-13 01:00N 54°03' E 009°18'4 8.5
2017-Nov-13 00:30N 54°08' E 009°20'4 8.2
2017-Nov-13 00:00N 54°10' E 009°25'4 8.8
2017-Nov-12 23:30N 54°12' E 009°32'4 8.7
2017-Nov-12 23:00N 54°15' E 009°37'4 7.3
2017-Nov-12 22:30N 54°18' E 009°41'4 7.9
2017-Nov-12 22:00N 54°21' E 009°45'8 7.7
2017-Nov-12 20:59N 54°21' E 009°59'17 4.8
2017-Nov-12 17:24N 54°29' E 010°25'410.6
2017-Nov-12 17:00N 54°30' E 010°32'510.7
2017-Nov-12 16:30N 54°31' E 010°41'510.9
2017-Nov-12 16:00N 54°33' E 010°50'510.7
2017-Nov-12 15:30N 54°34' E 010°59'510.3
2017-Nov-12 15:00N 54°34' E 011°08'510.6
2017-Nov-12 14:30N 54°32' E 011°16'510.1
2017-Nov-12 14:00N 54°31' E 011°25'5 9.8
2017-Nov-12 13:30N 54°30' E 011°33'510.3
2017-Nov-12 12:59N 54°29' E 011°42'510.1
2017-Nov-12 12:28N 54°28' E 011°51'510.2
2017-Nov-12 12:00N 54°27' E 011°59'80 9.6
2017-Nov-12 03:40N 55°06' E 013°60'2 9.6
2017-Nov-12 03:27N 55°07' E 014°03'5 8.7
2017-Nov-12 02:55N 55°10' E 014°10'4 9.0
2017-Nov-12 02:30N 55°12' E 014°15'5 9.4
2017-Nov-12 02:00N 55°15' E 014°20'5 9.9
2017-Nov-12 01:30N 55°19' E 014°26'510.3
2017-Nov-12 01:00N 55°23' E 014°32'610.1
2017-Nov-12 00:26N 55°27' E 014°40'410.2
2017-Nov-12 00:00N 55°29' E 014°46'510.2
2017-Nov-11 23:30N 55°32' E 014°54'510.2
2017-Nov-11 23:00N 55°34' E 015°02'510.0
2017-Nov-11 22:30N 55°37' E 015°10'5 9.7
2017-Nov-11 22:00N 55°39' E 015°17'5 9.5
2017-Nov-11 21:30N 55°41' E 015°24'5 9.2
2017-Nov-11 21:00N 55°44' E 015°31'5 9.0
2017-Nov-11 20:30N 55°46' E 015°38'4 9.0
2017-Nov-11 20:00N 55°48' E 015°45'4 8.6
2017-Nov-11 19:30N 55°51' E 015°51'4 8.6
2017-Nov-11 19:00N 55°53' E 015°58'4 8.2
2017-Nov-11 18:30N 55°55' E 016°04'4 7.9
2017-Nov-11 18:00N 55°57' E 016°10'4 7.8
2017-Nov-11 17:30N 55°59' E 016°16'4 8.1
2017-Nov-11 17:00N 56°01' E 016°22'4 8.1
2017-Nov-11 16:30N 56°04' E 016°28'4 8.0
2017-Nov-11 16:00N 56°06' E 016°34'4 8.2
2017-Nov-11 15:30N 56°08' E 016°40'4 8.3
2017-Nov-11 15:00N 56°12' E 016°44'5 9.8
2017-Nov-11 14:30N 56°16' E 016°46'510.2
2017-Nov-11 13:58N 56°22' E 016°48'19910.0
2017-Nov-10 18:07N 59°21' E 019°33'110.4
2017-Nov-10 18:00N 59°22' E 019°34'1410.1
2017-Nov-10 16:38N 59°35' E 019°44'210.6
2017-Nov-10 16:28N 59°37' E 019°44'510.0
2017-Nov-10 16:00N 59°41' E 019°41'510.7
2017-Nov-10 15:30N 59°45' E 019°35'510.6
2017-Nov-10 15:00N 59°50' E 019°29'610.8
2017-Nov-10 14:28N 59°55' E 019°23'510.8
2017-Nov-10 13:59N 59°59' E 019°17'511.1
2017-Nov-10 13:30N 60°03' E 019°11'611.0
2017-Nov-10 13:00N 60°08' E 019°05'510.7
2017-Nov-10 12:30N 60°13' E 018°60'510.5
2017-Nov-10 12:00N 60°18' E 019°00'510.8
2017-Nov-10 11:30N 60°23' E 019°00'  

Dump ship's entire track history